createdAt,value
2018-04-18T00:02:02.248Z,2.53
2018-04-18T00:04:29.800Z,3.63
2018-04-18T00:06:57.348Z,3.23
2018-04-18T00:09:24.921Z,3.90
2018-04-18T00:11:52.478Z,3.50
2018-04-18T00:14:20.054Z,2.60
2018-04-18T00:16:48.377Z,2.60
2018-04-18T00:19:15.956Z,3.17
2018-04-18T00:21:43.500Z,3.10
2018-04-18T00:24:11.064Z,3.10
2018-04-18T00:26:38.622Z,3.13
2018-04-18T00:29:06.953Z,3.40
2018-04-18T00:31:35.270Z,3.03
2018-04-18T00:34:02.838Z,2.77
2018-04-18T00:36:30.394Z,2.97
2018-04-18T00:38:57.961Z,2.40
2018-04-18T00:41:25.514Z,3.20
2018-04-18T00:43:53.089Z,3.37
2018-04-18T00:46:20.635Z,2.80
2018-04-18T00:48:48.204Z,3.43
2018-04-18T00:51:15.744Z,3.53
2018-04-18T00:53:43.317Z,2.57
2018-04-18T00:56:10.865Z,3.20
2018-04-18T00:58:38.433Z,3.13
2018-04-18T01:01:05.989Z,3.03
2018-04-18T01:03:33.562Z,2.53
2018-04-18T01:06:01.104Z,3.50
2018-04-18T01:08:28.694Z,2.93
2018-04-18T01:10:56.251Z,3.13
2018-04-18T01:13:23.819Z,3.23
2018-04-18T01:15:51.369Z,3.33
2018-04-18T01:18:18.952Z,2.50
2018-04-18T01:20:47.266Z,2.67
2018-04-18T01:23:14.837Z,3.10
2018-04-18T01:25:42.385Z,2.73
2018-04-18T01:28:09.952Z,2.63
2018-04-18T01:30:37.508Z,2.80
2018-04-18T01:33:05.081Z,2.83
2018-04-18T01:35:32.633Z,2.63
2018-04-18T01:38:00.209Z,3.10
2018-04-18T01:40:27.748Z,3.10
2018-04-18T01:42:55.296Z,2.63
2018-04-18T01:45:22.861Z,2.50
2018-04-18T01:47:50.403Z,2.53
2018-04-18T01:50:17.974Z,3.00
2018-04-18T01:52:45.521Z,3.13
2018-04-18T01:55:13.098Z,2.60
2018-04-18T01:57:40.646Z,3.33
2018-04-18T02:00:08.235Z,2.80
2018-04-18T02:02:35.780Z,2.90
2018-04-18T02:05:03.354Z,2.30
2018-04-18T02:07:30.919Z,3.33
2018-04-18T02:09:58.489Z,3.30
2018-04-18T02:12:26.800Z,2.77
2018-04-18T02:14:54.369Z,2.63
2018-04-18T02:17:21.918Z,3.07
2018-04-18T02:19:49.485Z,2.57
2018-04-18T02:22:17.038Z,2.10
2018-04-18T02:24:44.614Z,2.63
2018-04-18T02:27:12.166Z,2.87
2018-04-18T02:29:39.739Z,2.70
2018-04-18T02:32:07.337Z,2.67
2018-04-18T02:34:35.678Z,2.67
2018-04-18T02:37:03.226Z,2.97
2018-04-18T02:39:30.800Z,2.87
2018-04-18T02:41:58.389Z,2.73
2018-04-18T02:44:26.736Z,2.00
2018-04-18T02:46:54.291Z,2.83
2018-04-18T02:49:21.873Z,3.27
2018-04-18T02:51:49.429Z,2.17
2018-04-18T02:54:17.005Z,2.80
2018-04-18T02:56:45.330Z,2.77
2018-04-18T02:59:12.897Z,2.70
2018-04-18T03:01:40.445Z,2.87
2018-04-18T03:04:08.015Z,3.20
2018-04-18T03:06:35.586Z,2.80
2018-04-18T03:09:03.933Z,2.47
2018-04-18T03:11:31.566Z,2.57
2018-04-18T03:13:59.122Z,3.00
2018-04-18T03:16:27.461Z,2.20
2018-04-18T03:18:55.021Z,2.53
2018-04-18T03:21:22.605Z,2.80
2018-04-18T03:23:50.926Z,2.70
2018-04-18T03:26:18.506Z,3.23
2018-04-18T03:28:46.052Z,2.50
2018-04-18T03:31:13.631Z,3.30
2018-04-18T03:33:41.198Z,9.40
2018-04-18T03:36:08.784Z,5.10
2018-04-18T03:38:36.342Z,8.30
2018-04-18T03:41:04.671Z,6.50
2018-04-18T03:43:32.228Z,16.20
2018-04-18T03:45:59.808Z,9.00
2018-04-18T03:48:27.357Z,6.43
2018-04-18T03:51:01.385Z,6.93
2018-04-18T03:53:32.309Z,12.50
2018-04-18T03:56:01.623Z,5.97
2018-04-18T03:58:29.185Z,9.77
2018-04-18T04:00:57.528Z,18.83
2018-04-18T04:03:25.087Z,10.07
2018-04-18T04:05:52.660Z,7.23
2018-04-18T04:08:20.221Z,7.37
2018-04-18T04:10:47.801Z,9.67
2018-04-18T04:13:16.141Z,6.80
2018-04-18T04:15:43.724Z,15.67
2018-04-18T04:18:23.049Z,18.47
2018-04-18T04:21:02.437Z,6.60
2018-04-18T04:23:41.682Z,6.10
2018-04-18T04:26:09.274Z,9.57
2018-04-18T04:28:36.830Z,19.93
2018-04-18T04:31:04.420Z,13.10
2018-04-18T04:33:32.741Z,13.27
2018-04-18T04:36:00.321Z,17.90
2018-04-18T04:38:27.879Z,7.03
2018-04-18T04:40:55.443Z,3.83
2018-04-18T04:43:22.995Z,6.03
2018-04-18T04:45:50.570Z,7.90
2018-04-18T04:48:18.125Z,5.63
2018-04-18T04:50:45.703Z,6.70
2018-04-18T04:53:13.257Z,5.50
2018-04-18T04:55:40.821Z,7.63
2018-04-18T04:58:08.379Z,7.17
2018-04-18T05:00:35.929Z,4.90
2018-04-18T05:03:03.501Z,6.10
2018-04-18T05:05:31.818Z,4.03
2018-04-18T05:07:59.387Z,7.07
2018-04-18T05:10:26.934Z,4.10
2018-04-18T05:12:54.508Z,4.50
2018-04-18T05:15:22.055Z,4.90
2018-04-18T05:17:49.628Z,5.17
2018-04-18T05:20:17.181Z,4.90
2018-04-18T05:22:44.756Z,6.33
2018-04-18T05:25:13.189Z,3.77
2018-04-18T05:27:40.762Z,7.53
2018-04-18T05:30:08.317Z,5.63
2018-04-18T05:32:35.909Z,6.60
2018-04-18T05:35:03.469Z,7.33
2018-04-18T05:37:31.089Z,3.83
2018-04-18T05:39:58.641Z,6.73
2018-04-18T05:42:26.212Z,6.60
2018-04-18T05:44:53.771Z,7.53
2018-04-18T05:47:21.359Z,5.63
2018-04-18T05:49:48.920Z,4.17
2018-04-18T05:52:17.252Z,9.90
2018-04-18T05:54:45.566Z,3.87
2018-04-18T05:57:13.145Z,5.83
2018-04-18T05:59:40.704Z,5.97
2018-04-18T06:02:08.281Z,8.00
2018-04-18T06:04:35.852Z,6.53
2018-04-18T06:07:04.169Z,9.00
2018-04-18T06:09:31.749Z,15.10
2018-04-18T06:11:59.305Z,10.10
2018-04-18T06:14:26.930Z,7.13
2018-04-18T06:16:54.481Z,7.73
2018-04-18T06:19:22.088Z,2.53
2018-04-18T06:21:49.625Z,2.80
2018-04-18T06:24:17.193Z,2.10
2018-04-18T06:26:44.741Z,3.37
2018-04-18T06:29:12.318Z,3.77
2018-04-18T06:31:39.873Z,3.23
2018-04-18T06:34:07.441Z,3.30
2018-04-18T06:36:35.757Z,3.73
2018-04-18T06:39:03.329Z,2.33
2018-04-18T06:41:30.878Z,3.50
2018-04-18T06:43:59.363Z,3.23
2018-04-18T06:46:28.526Z,3.93
2018-04-18T06:48:56.142Z,3.70
2018-04-18T06:51:23.759Z,6.10
2018-04-18T06:53:51.409Z,40.27
2018-04-18T06:56:19.031Z,13.40
2018-04-18T06:58:46.715Z,22.30
2018-04-18T07:01:14.268Z,12.10
2018-04-18T07:03:41.908Z,13.73
2018-04-18T07:06:09.570Z,10.53
2018-04-18T07:08:37.156Z,9.83
2018-04-18T07:11:04.712Z,9.93
2018-04-18T07:13:32.278Z,9.80
2018-04-18T07:15:59.852Z,6.33
2018-04-18T07:18:28.134Z,5.40
2018-04-18T07:20:56.657Z,4.10
2018-04-18T07:23:24.209Z,3.47
2018-04-18T07:25:51.781Z,4.30
2018-04-18T07:28:19.325Z,3.27
2018-04-18T07:30:46.897Z,3.90
2018-04-18T07:33:14.444Z,3.00
2018-04-18T07:35:42.019Z,3.13
2018-04-18T07:38:09.580Z,3.00
2018-04-18T07:40:37.159Z,3.87
2018-04-18T07:43:04.713Z,3.60
2018-04-18T07:45:32.281Z,2.67
2018-04-18T07:47:59.829Z,2.70
2018-04-18T07:50:27.397Z,2.90
2018-04-18T07:52:54.948Z,3.10
2018-04-18T07:55:22.524Z,4.10
2018-04-18T07:57:50.072Z,3.73
2018-04-18T08:00:17.697Z,3.20
2018-04-18T08:02:45.244Z,3.30
2018-04-18T08:05:12.821Z,3.00
2018-04-18T08:07:40.363Z,3.30
2018-04-18T08:10:07.937Z,3.00
2018-04-18T08:12:35.495Z,3.87
2018-04-18T08:15:03.069Z,3.10
2018-04-18T08:17:30.624Z,2.87
2018-04-18T08:19:58.197Z,3.93
2018-04-18T08:22:25.741Z,3.37
2018-04-18T08:24:53.324Z,2.17
2018-04-18T08:27:20.870Z,2.63
2018-04-18T08:29:48.429Z,2.73
2018-04-18T08:32:15.997Z,2.43
2018-04-18T08:34:43.585Z,2.30
2018-04-18T08:37:11.165Z,3.13
2018-04-18T08:39:38.719Z,2.83
2018-04-18T08:42:06.293Z,3.90
2018-04-18T08:44:33.837Z,4.40
2018-04-18T08:47:01.416Z,3.77
2018-04-18T08:49:28.981Z,4.57
2018-04-18T08:51:56.554Z,4.40
2018-04-18T08:54:24.110Z,3.87
2018-04-18T08:56:51.677Z,4.37
2018-04-18T08:59:19.237Z,3.80
2018-04-18T09:01:46.813Z,4.23
2018-04-18T09:04:14.367Z,3.87
2018-04-18T09:06:41.944Z,6.40
2018-04-18T09:09:10.265Z,4.80
2018-04-18T09:11:37.837Z,4.20
2018-04-18T09:14:05.389Z,4.67
2018-04-18T09:16:32.967Z,4.50
2018-04-18T09:19:00.516Z,3.97
2018-04-18T09:21:28.090Z,4.40
2018-04-18T09:23:55.643Z,4.30
2018-04-18T09:26:23.217Z,4.40
2018-04-18T09:28:50.778Z,3.97
2018-04-18T09:31:18.360Z,4.40
2018-04-18T09:33:45.911Z,4.70
2018-04-18T09:36:13.457Z,3.93
2018-04-18T09:38:41.034Z,4.30
2018-04-18T09:41:09.344Z,4.57
2018-04-18T09:43:36.912Z,3.60
2018-04-18T09:46:04.463Z,4.17
2018-04-18T09:48:32.034Z,4.00
2018-04-18T09:50:59.586Z,4.17
2018-04-18T09:53:27.186Z,4.03
2018-04-18T09:55:54.730Z,3.90
2018-04-18T09:58:22.351Z,4.13
2018-04-18T10:00:55.471Z,2.93
2018-04-18T10:03:23.045Z,4.37
2018-04-18T10:05:50.596Z,3.70
2018-04-18T10:08:18.173Z,4.30
2018-04-18T10:10:45.725Z,3.70
2018-04-18T10:13:13.295Z,4.37
2018-04-18T10:15:40.853Z,4.20
2018-04-18T10:18:08.430Z,4.20
2018-04-18T10:20:36.749Z,4.80
2018-04-18T10:23:05.328Z,4.63
2018-04-18T10:25:32.901Z,4.60
2018-04-18T10:28:00.473Z,3.80
2018-04-18T10:33:10.240Z,3.93
2018-04-18T10:35:42.605Z,3.20
2018-04-18T10:38:14.519Z,3.87
2018-04-18T10:40:47.010Z,3.83
2018-04-18T10:43:18.716Z,4.23
2018-04-18T10:45:48.249Z,4.27
2018-04-18T10:48:16.714Z,4.77
2018-04-18T10:50:47.027Z,3.80
2018-04-18T10:53:15.366Z,4.00
2018-04-18T10:55:48.840Z,3.43
2018-04-18T10:58:34.257Z,4.03
2018-04-18T11:01:01.781Z,3.80
2018-04-18T11:03:38.269Z,4.33
2018-04-18T11:06:05.821Z,4.30
2018-04-18T11:08:33.373Z,5.20
2018-04-18T11:11:08.471Z,3.90
2018-04-18T11:13:36.013Z,4.60
2018-04-18T11:16:19.693Z,4.90
2018-04-18T11:18:52.377Z,4.30
2018-04-18T11:21:19.928Z,4.10
2018-04-18T11:23:47.478Z,4.83
2018-04-18T11:26:15.061Z,5.30
2018-04-18T11:28:42.613Z,4.37
2018-04-18T11:31:10.183Z,4.60
2018-04-18T11:33:37.745Z,4.80
2018-04-18T11:36:06.080Z,5.77
2018-04-18T11:38:33.626Z,4.33
2018-04-18T11:41:01.214Z,5.20
2018-04-18T11:43:28.783Z,7.93
2018-04-18T11:45:56.365Z,5.30
2018-04-18T11:48:23.917Z,6.40
2018-04-18T11:50:51.493Z,5.00
2018-04-18T11:53:19.045Z,6.33
2018-04-18T11:55:46.616Z,5.53
2018-04-18T11:58:14.165Z,6.70
2018-04-18T12:00:41.743Z,5.97
2018-04-18T12:03:09.295Z,6.10
2018-04-18T12:05:36.875Z,5.60
2018-04-18T12:08:04.457Z,6.27
2018-04-18T12:10:32.029Z,5.63
2018-04-18T12:12:59.578Z,5.07
2018-04-18T12:15:27.162Z,5.60
2018-04-18T12:17:54.725Z,6.47
2018-04-18T12:20:23.066Z,5.80
2018-04-18T12:22:50.626Z,6.60
2018-04-18T12:25:18.201Z,5.90
2018-04-18T12:27:45.745Z,7.00
2018-04-18T12:30:13.318Z,6.93
2018-04-18T12:32:40.876Z,6.57
2018-04-18T12:35:08.433Z,6.27
2018-04-18T12:37:36.002Z,5.07
2018-04-18T12:40:03.637Z,6.27
2018-04-18T12:42:31.214Z,5.80
2018-04-18T12:44:58.765Z,5.80
2018-04-18T12:47:26.344Z,6.47
2018-04-18T12:49:53.896Z,6.57
2018-04-18T12:52:21.478Z,5.83
2018-04-18T12:54:49.029Z,5.97
2018-04-18T12:57:17.373Z,5.03
2018-04-18T12:59:44.933Z,6.00
2018-04-18T13:02:13.412Z,6.70
2018-04-18T13:04:40.971Z,6.10
2018-04-18T13:07:08.549Z,4.73
2018-04-18T13:09:36.098Z,4.80
2018-04-18T13:12:03.680Z,5.47
2018-04-18T13:14:31.229Z,4.87
2018-04-18T13:16:58.807Z,6.40
2018-04-18T13:19:26.354Z,6.13
2018-04-18T13:21:54.644Z,6.10
2018-04-18T13:24:22.793Z,5.27
2018-04-18T13:26:50.370Z,5.40
2018-04-18T13:29:18.372Z,5.00
2018-04-18T13:31:45.946Z,4.87
2018-04-18T13:34:13.530Z,6.07
2018-04-18T13:36:41.102Z,4.20
2018-04-18T13:39:08.653Z,5.93
2018-04-18T13:41:36.241Z,5.57
2018-04-18T13:44:03.796Z,6.10
2018-04-18T13:46:31.348Z,4.40
2018-04-18T13:48:58.929Z,5.80
2018-04-18T13:51:26.477Z,4.73
2018-04-18T13:53:54.050Z,5.10
2018-04-18T13:56:21.604Z,4.90
2018-04-18T13:58:49.173Z,4.43
2018-04-18T14:01:16.716Z,5.17
2018-04-18T14:03:44.289Z,5.30
2018-04-18T14:06:11.839Z,4.27
2018-04-18T14:08:39.419Z,4.30
2018-04-18T14:11:07.739Z,4.70
2018-04-18T14:13:35.313Z,3.70
2018-04-18T14:16:02.866Z,3.73
2018-04-18T14:18:30.433Z,4.10
2018-04-18T14:20:57.978Z,4.83
2018-04-18T14:23:25.560Z,4.93
2018-04-18T14:25:53.104Z,4.27
2018-04-18T14:28:20.678Z,4.57
2018-04-18T14:30:48.231Z,4.50
2018-04-18T14:33:16.257Z,3.70
2018-04-18T14:35:43.805Z,4.80
2018-04-18T14:38:12.137Z,3.90
2018-04-18T14:40:40.138Z,3.80
2018-04-18T14:43:07.710Z,3.77
2018-04-18T14:45:35.257Z,3.50
2018-04-18T14:48:03.603Z,4.30
2018-04-18T14:50:31.157Z,3.33
2018-04-18T14:52:58.701Z,4.37
2018-04-18T14:55:26.273Z,3.30
2018-04-18T14:57:53.821Z,2.93
2018-04-18T15:00:21.389Z,3.23
2018-04-18T15:02:48.950Z,3.87
2018-04-18T15:05:16.551Z,3.73
2018-04-18T15:07:44.097Z,2.83
2018-04-18T15:10:12.425Z,3.43
2018-04-18T15:12:39.979Z,3.70
2018-04-18T15:15:07.549Z,3.20
2018-04-18T15:17:35.856Z,3.80
2018-04-18T15:20:04.187Z,4.17
2018-04-18T15:22:31.738Z,4.90
2018-04-18T15:24:59.311Z,3.30
2018-04-18T15:27:27.045Z,4.30
2018-04-18T15:29:54.617Z,3.83
2018-04-18T15:32:22.163Z,3.70
2018-04-18T15:34:49.733Z,3.70
2018-04-18T15:37:17.277Z,3.47
2018-04-18T15:39:45.616Z,3.80
2018-04-18T15:42:13.172Z,4.40
2018-04-18T15:44:40.767Z,4.30
2018-04-18T15:47:08.322Z,3.43
2018-04-18T15:49:36.673Z,4.70
2018-04-18T15:52:04.222Z,3.20
2018-04-18T15:54:31.833Z,3.90
2018-04-18T15:56:59.383Z,4.07
2018-04-18T15:59:27.718Z,3.17
2018-04-18T16:01:55.279Z,3.43
2018-04-18T16:04:22.829Z,3.40
2018-04-18T16:06:50.397Z,3.90
2018-04-18T16:09:17.945Z,3.83
2018-04-18T16:11:45.529Z,3.30
2018-04-18T16:14:13.661Z,4.20
2018-04-18T16:16:41.224Z,4.67
2018-04-18T16:19:08.771Z,4.20
2018-04-18T16:21:36.345Z,3.80
2018-04-18T16:24:03.900Z,4.10
2018-04-18T16:26:31.477Z,3.10
2018-04-18T16:28:59.020Z,3.80
2018-04-18T16:31:26.588Z,3.30
2018-04-18T16:33:54.152Z,3.93
2018-04-18T16:36:21.725Z,4.23
2018-04-18T16:38:49.278Z,4.13
2018-04-18T16:41:16.855Z,4.00
2018-04-18T16:43:44.405Z,3.50
2018-04-18T16:46:11.981Z,3.70
2018-04-18T16:48:40.438Z,3.77
2018-04-18T16:51:08.006Z,3.87
2018-04-18T16:53:35.568Z,3.63
2018-04-18T16:56:03.141Z,4.00
2018-04-18T16:58:30.914Z,3.50
2018-04-18T17:00:58.490Z,3.97
2018-04-18T17:03:26.065Z,3.83
2018-04-18T17:05:53.622Z,3.57
2018-04-18T17:08:21.191Z,3.63
2018-04-18T17:10:48.744Z,4.30
2018-04-18T17:13:16.318Z,3.90
2018-04-18T17:15:43.869Z,3.27
2018-04-18T17:18:11.433Z,3.83
2018-04-18T17:20:39.760Z,3.90
2018-04-18T17:23:08.102Z,3.53
2018-04-18T17:25:35.676Z,3.67
2018-04-18T17:28:03.321Z,3.83
2018-04-18T17:30:30.905Z,4.20
2018-04-18T17:32:58.482Z,4.90
2018-04-18T17:35:27.690Z,3.50
2018-04-18T17:37:55.786Z,3.33
2018-04-18T17:40:23.332Z,3.23
2018-04-18T17:42:50.904Z,3.53
2018-04-18T17:45:18.461Z,3.77
2018-04-18T17:47:46.035Z,3.50
2018-04-18T17:50:13.593Z,3.80
2018-04-18T17:52:41.173Z,3.13
2018-04-18T17:55:08.716Z,3.20
2018-04-18T17:57:36.279Z,2.90
2018-04-18T18:00:03.834Z,3.23
2018-04-18T18:02:31.409Z,3.43
2018-04-18T18:04:58.961Z,3.50
2018-04-18T18:07:26.534Z,3.57
2018-04-18T18:09:54.951Z,2.40
2018-04-18T18:12:22.543Z,2.03
2018-04-18T18:14:50.097Z,2.30
2018-04-18T18:17:17.676Z,2.30
2018-04-18T18:19:45.258Z,2.13
2018-04-18T18:22:12.817Z,1.90
2018-04-18T18:24:42.158Z,2.20
2018-04-18T18:27:09.737Z,2.17
2018-04-18T18:29:37.672Z,1.87
2018-04-18T18:32:05.281Z,2.17
2018-04-18T18:34:32.930Z,2.10
2018-04-18T18:37:00.480Z,2.73
2018-04-18T18:39:28.061Z,2.10
2018-04-18T18:41:55.625Z,2.67
2018-04-18T18:44:23.196Z,3.23
2018-04-18T18:46:51.500Z,3.13
2018-04-18T18:49:19.080Z,2.70
2018-04-18T18:51:46.770Z,2.00
2018-04-18T18:54:14.345Z,2.20
2018-04-18T18:56:42.668Z,4.23
2018-04-18T18:59:10.242Z,2.70
2018-04-18T19:01:37.834Z,15.70
2018-04-18T19:04:05.413Z,9.73
2018-04-18T19:06:33.738Z,9.70
2018-04-18T19:09:01.305Z,11.27
2018-04-18T19:11:28.873Z,7.60
2018-04-18T19:13:56.449Z,3.30
2018-04-18T19:16:24.010Z,2.70
2018-04-18T19:18:51.619Z,5.77
2018-04-18T19:21:19.163Z,5.00
2018-04-18T19:23:46.709Z,4.33
2018-04-18T19:26:14.287Z,6.10
2018-04-18T19:28:41.879Z,4.63
2018-04-18T19:31:09.434Z,3.13
2018-04-18T19:33:36.990Z,2.27
2018-04-18T19:36:04.620Z,2.33
2018-04-18T19:38:32.137Z,2.60
2018-04-18T19:40:59.760Z,2.40
2018-04-18T19:43:27.520Z,2.10
2018-04-18T19:45:55.084Z,2.27
2018-04-18T19:48:23.405Z,2.40
2018-04-18T19:50:50.977Z,2.57
2018-04-18T19:53:18.534Z,2.40
2018-04-18T19:55:46.870Z,3.70
2018-04-18T19:58:14.415Z,2.63
2018-04-18T20:00:41.985Z,2.03
2018-04-18T20:03:10.297Z,2.73
2018-04-18T20:05:37.878Z,2.80
2018-04-18T20:08:05.434Z,3.20
2018-04-18T20:10:32.997Z,3.03
2018-04-18T20:13:00.545Z,3.07
2018-04-18T20:15:28.112Z,2.40
2018-04-18T20:17:55.662Z,2.30
2018-04-18T20:20:23.242Z,2.10
2018-04-18T20:22:50.784Z,2.47
2018-04-18T20:25:18.354Z,2.57
2018-04-18T20:27:47.025Z,2.43
2018-04-18T20:30:14.592Z,2.30
2018-04-18T20:32:42.144Z,2.60
2018-04-18T20:35:09.709Z,2.23
2018-04-18T20:37:38.026Z,2.20
2018-04-18T20:40:05.602Z,2.43
2018-04-18T20:42:33.149Z,2.50
2018-04-18T20:45:00.732Z,2.30
2018-04-18T20:47:28.285Z,2.60
2018-04-18T20:49:56.291Z,2.43
2018-04-18T20:52:25.834Z,2.87
2018-04-18T20:54:53.786Z,3.00
2018-04-18T20:57:21.364Z,3.10
2018-04-18T20:59:52.291Z,2.87
2018-04-18T21:02:24.671Z,2.77
2018-04-18T21:04:53.916Z,2.97
2018-04-18T21:07:21.693Z,2.90
2018-04-18T21:09:52.389Z,2.97
2018-04-18T21:12:22.414Z,2.80
2018-04-18T21:15:01.795Z,2.67
2018-04-18T21:17:29.369Z,3.10
2018-04-18T21:19:56.929Z,2.77
2018-04-18T21:22:29.805Z,2.60
2018-04-18T21:25:00.648Z,3.30
2018-04-18T21:27:35.497Z,2.40
2018-04-18T21:30:06.489Z,2.97
2018-04-18T21:32:38.304Z,3.10
2018-04-18T21:35:12.103Z,3.00
2018-04-18T21:37:39.676Z,3.20
2018-04-18T21:40:08.935Z,2.90
2018-04-18T21:42:40.817Z,3.00
2018-04-18T21:45:08.368Z,3.40
2018-04-18T21:47:36.377Z,3.77
2018-04-18T21:50:03.937Z,8.87
2018-04-18T21:52:32.278Z,4.03
2018-04-18T21:54:59.838Z,6.63
2018-04-18T21:57:27.414Z,9.70
2018-04-18T21:59:55.738Z,6.00
2018-04-18T22:02:23.313Z,10.97
2018-04-18T22:04:50.870Z,8.67
2018-04-18T22:07:18.453Z,10.80
2018-04-18T22:09:46.011Z,7.83
2018-04-18T22:12:13.593Z,9.23
2018-04-18T22:14:41.910Z,12.03
2018-04-18T22:17:09.522Z,11.80
2018-04-18T22:19:37.074Z,11.10
2018-04-18T22:22:04.649Z,9.80
2018-04-18T22:24:32.965Z,10.77
2018-04-18T22:27:01.105Z,11.67
2018-04-18T22:29:28.662Z,11.30
2018-04-18T22:31:56.241Z,10.67
2018-04-18T22:34:23.798Z,11.10
2018-04-18T22:36:51.348Z,9.37
2018-04-18T22:39:18.949Z,11.00
2018-04-18T22:41:46.500Z,10.23
2018-04-18T22:44:14.086Z,8.80
2018-04-18T22:46:41.637Z,7.87
2018-04-18T22:49:09.216Z,9.57
2018-04-18T22:51:36.827Z,10.63
2018-04-18T22:54:04.405Z,10.37
2018-04-18T22:56:31.957Z,9.83
2018-04-18T22:58:59.534Z,8.17
2018-04-18T23:01:27.094Z,7.20
2018-04-18T23:03:54.677Z,6.77
2018-04-18T23:06:23.004Z,5.60
2018-04-18T23:08:50.581Z,5.47
2018-04-18T23:11:18.173Z,6.33
2018-04-18T23:13:45.743Z,4.47
2018-04-18T23:16:14.069Z,6.30
2018-04-18T23:18:41.640Z,5.80
2018-04-18T23:21:09.198Z,6.30
2018-04-18T23:23:36.778Z,5.80
2018-04-18T23:26:04.338Z,6.30
2018-04-18T23:28:31.914Z,5.20
2018-04-18T23:30:59.461Z,5.50
2018-04-18T23:33:27.806Z,6.37
2018-04-18T23:35:55.368Z,5.83
2018-04-18T23:38:22.927Z,4.57
2018-04-18T23:40:50.524Z,5.17
2018-04-18T23:43:19.866Z,4.90
2018-04-18T23:45:47.441Z,4.90
2018-04-18T23:48:15.001Z,4.77
2018-04-18T23:50:42.590Z,5.83
2018-04-18T23:53:10.965Z,5.70
2018-04-18T23:55:38.541Z,5.03
2018-04-18T23:58:06.093Z,4.20
